sensor_id;sensor_type;location;lat;lon;timestamp;pressure;altitude;pressure_sealevel;temperature;humidity
15694;BME280;7947;48.834;9.132;2023-08-21T00:02:00;98668.72;;;25.02;81.79
15694;BME280;7947;48.834;9.132;2023-08-21T00:05:03;98687.94;;;25.02;81.72
15694;BME280;7947;48.834;9.132;2023-08-21T00:08:06;98687.94;;;25.02;81.43
15694;BME280;7947;48.834;9.132;2023-08-21T00:11:09;98683.59;;;25.01;81.65
15694;BME280;7947;48.834;9.132;2023-08-21T00:14:13;98680.41;;;24.99;82.00
15694;BME280;7947;48.834;9.132;2023-08-21T00:17:16;98678.03;;;24.97;82.03
15694;BME280;7947;48.834;9.132;2023-08-21T00:20:19;98681.13;;;24.96;82.27
15694;BME280;7947;48.834;9.132;2023-08-21T00:23:22;98678.75;;;24.94;82.07
15694;BME280;7947;48.834;9.132;2023-08-21T00:26:25;98677.94;;;24.94;81.65
15694;BME280;7947;48.834;9.132;2023-08-21T00:29:29;98679.09;;;24.93;82.22
15694;BME280;7947;48.834;9.132;2023-08-21T00:32:32;98672.38;;;24.90;81.85
15694;BME280;7947;48.834;9.132;2023-08-21T00:35:35;98667.69;;;24.91;82.49
15694;BME280;7947;48.834;9.132;2023-08-21T00:38:38;98661.41;;;24.90;81.92
15694;BME280;7947;48.834;9.132;2023-08-21T00:41:41;98670.06;;;24.92;82.28
15694;BME280;7947;48.834;9.132;2023-08-21T00:44:46;98666.44;;;24.88;81.90
15694;BME280;7947;48.834;9.132;2023-08-21T00:47:48;98666.72;;;24.83;82.28
15694;BME280;7947;48.834;9.132;2023-08-21T00:50:52;98666.59;;;24.80;81.74
15694;BME280;7947;48.834;9.132;2023-08-21T00:53:55;98662.53;;;24.74;81.75
15694;BME280;7947;48.834;9.132;2023-08-21T00:56:58;98659.22;;;24.68;81.91
15694;BME280;7947;48.834;9.132;2023-08-21T01:00:03;98661.38;;;24.59;82.08
15694;BME280;7947;48.834;9.132;2023-08-21T01:03:07;98655.72;;;24.52;82.18
15694;BME280;7947;48.834;9.132;2023-08-21T01:06:10;98652.16;;;24.52;81.53
15694;BME280;7947;48.834;9.132;2023-08-21T01:09:19;98648.69;;;24.39;82.15
15694;BME280;7947;48.834;9.132;2023-08-21T01:12:31;98657.19;;;24.34;81.62
15694;BME280;7947;48.834;9.132;2023-08-21T01:15:38;98658.22;;;24.30;82.48
15694;BME280;7947;48.834;9.132;2023-08-21T01:18:43;98653.38;;;24.23;82.14
15694;BME280;7947;48.834;9.132;2023-08-21T01:21:47;98664.94;;;24.16;83.06
15694;BME280;7947;48.834;9.132;2023-08-21T01:24:51;98663.69;;;24.14;82.94
15694;BME280;7947;48.834;9.132;2023-08-21T01:27:54;98661.38;;;24.16;82.74
15694;BME280;7947;48.834;9.132;2023-08-21T01:31:01;98665.06;;;24.08;83.12
15694;BME280;7947;48.834;9.132;2023-08-21T01:34:10;98657.56;;;24.05;83.24
15694;BME280;7947;48.834;9.132;2023-08-21T01:37:13;98659.06;;;24.02;83.01
15694;BME280;7947;48.834;9.132;2023-08-21T01:40:21;98657.13;;;24.03;83.32
15694;BME280;7947;48.834;9.132;2023-08-21T01:43:24;98659.28;;;23.97;83.13
15694;BME280;7947;48.834;9.132;2023-08-21T01:46:27;98663.16;;;23.96;83.00
15694;BME280;7947;48.834;9.132;2023-08-21T01:49:30;98661.84;;;23.90;83.57
15694;BME280;7947;48.834;9.132;2023-08-21T01:52:33;98657.84;;;23.88;83.46
15694;BME280;7947;48.834;9.132;2023-08-21T01:55:37;98660.13;;;23.86;84.05
15694;BME280;7947;48.834;9.132;2023-08-21T01:58:40;98660.94;;;23.86;83.78
15694;BME280;7947;48.834;9.132;2023-08-21T02:01:43;98654.09;;;23.80;84.22
15694;BME280;7947;48.834;9.132;2023-08-21T02:04:46;98658.69;;;23.76;84.32
15694;BME280;7947;48.834;9.132;2023-08-21T02:07:49;98654.34;;;23.75;83.65
15694;BME280;7947;48.834;9.132;2023-08-21T02:10:53;98655.72;;;23.69;84.28
15694;BME280;7947;48.834;9.132;2023-08-21T02:13:56;98661.38;;;23.61;84.42
15694;BME280;7947;48.834;9.132;2023-08-21T02:16:58;98654.28;;;23.60;84.11
15694;BME280;7947;48.834;9.132;2023-08-21T02:20:01;98659.06;;;23.63;83.92
15694;BME280;7947;48.834;9.132;2023-08-21T02:23:04;98657.38;;;23.58;84.27
15694;BME280;7947;48.834;9.132;2023-08-21T02:26:08;98656.38;;;23.51;85.08
15694;BME280;7947;48.834;9.132;2023-08-21T02:29:11;98662.53;;;23.48;85.23
15694;BME280;7947;48.834;9.132;2023-08-21T02:32:14;98662.75;;;23.43;85.03
15694;BME280;7947;48.834;9.132;2023-08-21T02:35:17;98664.72;;;23.42;85.48
15694;BME280;7947;48.834;9.132;2023-08-21T02:38:19;98663.47;;;23.40;85.77
15694;BME280;7947;48.834;9.132;2023-08-21T02:41:24;98664.72;;;23.42;85.19
15694;BME280;7947;48.834;9.132;2023-08-21T02:44:26;98672.13;;;23.42;85.29
15694;BME280;7947;48.834;9.132;2023-08-21T02:47:29;98667.59;;;23.34;86.23
15694;BME280;7947;48.834;9.132;2023-08-21T02:50:32;98672.47;;;23.28;86.11
15694;BME280;7947;48.834;9.132;2023-08-21T02:53:35;98671.91;;;23.22;86.82
15694;BME280;7947;48.834;9.132;2023-08-21T02:56:39;98664.03;;;23.21;87.18
15694;BME280;7947;48.834;9.132;2023-08-21T02:59:42;98670.19;;;23.18;86.95
15694;BME280;7947;48.834;9.132;2023-08-21T03:02:45;98666.53;;;23.14;86.84
15694;BME280;7947;48.834;9.132;2023-08-21T03:05:48;98662.56;;;23.11;87.22
15694;BME280;7947;48.834;9.132;2023-08-21T03:08:50;98661.78;;;23.11;87.35
15694;BME280;7947;48.834;9.132;2023-08-21T03:11:55;98667.56;;;23.09;86.90
15694;BME280;7947;48.834;9.132;2023-08-21T03:14:57;98664.84;;;23.09;86.77
15694;BME280;7947;48.834;9.132;2023-08-21T03:18:00;98669.75;;;23.04;87.20
15694;BME280;7947;48.834;9.132;2023-08-21T03:21:03;98667.81;;;23.04;87.52
15694;BME280;7947;48.834;9.132;2023-08-21T03:24:06;98667.00;;;23.04;87.64
15694;BME280;7947;48.834;9.132;2023-08-21T03:27:10;98661.88;;;23.02;87.98
15694;BME280;7947;48.834;9.132;2023-08-21T03:30:13;98664.63;;;23.02;87.60
15694;BME280;7947;48.834;9.132;2023-08-21T03:33:16;98664.63;;;23.02;87.29
15694;BME280;7947;48.834;9.132;2023-08-21T03:36:20;98668.06;;;22.99;88.03
15694;BME280;7947;48.834;9.132;2023-08-21T03:39:25;98672.25;;;22.97;87.41
15694;BME280;7947;48.834;9.132;2023-08-21T03:42:29;98671.00;;;22.94;87.63
15694;BME280;7947;48.834;9.132;2023-08-21T03:45:32;98676.25;;;22.87;88.25
15694;BME280;7947;48.834;9.132;2023-08-21T03:48:35;98669.41;;;22.81;88.09
15694;BME280;7947;48.834;9.132;2023-08-21T03:51:37;98671.34;;;22.81;88.89
15694;BME280;7947;48.834;9.132;2023-08-21T03:54:40;98674.19;;;22.84;88.73
15694;BME280;7947;48.834;9.132;2023-08-21T03:57:44;98678.41;;;22.82;88.29
15694;BME280;7947;48.834;9.132;2023-08-21T04:00:47;98690.03;;;22.79;88.74
15694;BME280;7947;48.834;9.132;2023-08-21T04:03:50;98688.91;;;22.80;88.55
15694;BME280;7947;48.834;9.132;2023-08-21T04:06:53;98683.78;;;22.78;88.36
15694;BME280;7947;48.834;9.132;2023-08-21T04:09:55;98689.78;;;22.72;88.51
15694;BME280;7947;48.834;9.132;2023-08-21T04:12:59;98691.63;;;22.68;89.05
15694;BME280;7947;48.834;9.132;2023-08-21T04:16:04;98697.44;;;22.66;88.59
15694;BME280;7947;48.834;9.132;2023-08-21T04:19:08;98712.69;;;22.67;89.08
15694;BME280;7947;48.834;9.132;2023-08-21T04:22:11;98711.09;;;22.66;89.35
15694;BME280;7947;48.834;9.132;2023-08-21T04:25:14;98706.09;;;22.68;89.07
15694;BME280;7947;48.834;9.132;2023-08-21T04:28:18;98702.91;;;22.66;88.30
15694;BME280;7947;48.834;9.132;2023-08-21T04:31:21;98711.56;;;22.68;88.55
15694;BME280;7947;48.834;9.132;2023-08-21T04:34:23;98704.38;;;22.64;88.56
15694;BME280;7947;48.834;9.132;2023-08-21T04:37:26;98714.03;;;22.61;88.75
15694;BME280;7947;48.834;9.132;2023-08-21T04:40:29;98707.50;;;22.54;89.74
15694;BME280;7947;48.834;9.132;2023-08-21T04:43:33;98711.19;;;22.58;89.40
15694;BME280;7947;48.834;9.132;2023-08-21T04:46:36;98704.13;;;22.57;89.60
15694;BME280;7947;48.834;9.132;2023-08-21T04:49:39;98698.44;;;22.62;89.28
15694;BME280;7947;48.834;9.132;2023-08-21T04:52:42;98708.44;;;22.58;89.12
15694;BME280;7947;48.834;9.132;2023-08-21T04:55:45;98702.19;;;22.57;89.70
15694;BME280;7947;48.834;9.132;2023-08-21T04:58:49;98712.00;;;22.58;89.88
15694;BME280;7947;48.834;9.132;2023-08-21T05:01:52;98709.25;;;22.58;89.74
15694;BME280;7947;48.834;9.132;2023-08-21T05:04:54;98710.97;;;22.63;89.70
15694;BME280;7947;48.834;9.132;2023-08-21T05:07:57;98715.41;;;22.67;89.81
15694;BME280;7947;48.834;9.132;2023-08-21T05:11:00;98708.03;;;22.68;90.32
15694;BME280;7947;48.834;9.132;2023-08-21T05:14:05;98719.06;;;22.71;89.72
15694;BME280;7947;48.834;9.132;2023-08-21T05:17:07;98714.53;;;22.75;90.25
15694;BME280;7947;48.834;9.132;2023-08-21T05:20:11;98716.72;;;22.82;90.42
15694;BME280;7947;48.834;9.132;2023-08-21T05:23:16;98715.66;;;22.86;90.49
15694;BME280;7947;48.834;9.132;2023-08-21T05:26:19;98716.59;;;22.90;89.70
15694;BME280;7947;48.834;9.132;2023-08-21T05:29:24;98720.59;;;22.93;90.60
15694;BME280;7947;48.834;9.132;2023-08-21T05:32:27;98728.25;;;22.99;90.57
15694;BME280;7947;48.834;9.132;2023-08-21T05:35:32;98729.59;;;23.05;90.55
15694;BME280;7947;48.834;9.132;2023-08-21T05:38:35;98731.41;;;23.13;90.70
15694;BME280;7947;48.834;9.132;2023-08-21T05:41:38;98732.13;;;23.22;90.31
15694;BME280;7947;48.834;9.132;2023-08-21T05:44:42;98736.38;;;23.32;90.41
15694;BME280;7947;48.834;9.132;2023-08-21T05:47:45;98726.44;;;23.40;90.34
15694;BME280;7947;48.834;9.132;2023-08-21T05:50:50;98732.22;;;23.50;89.89
15694;BME280;7947;48.834;9.132;2023-08-21T05:53:53;98735.66;;;23.59;88.89
15694;BME280;7947;48.834;9.132;2023-08-21T05:56:56;98743.06;;;23.71;87.64
15694;BME280;7947;48.834;9.132;2023-08-21T06:00:00;98728.53;;;23.82;86.95
15694;BME280;7947;48.834;9.132;2023-08-21T06:03:03;98738.19;;;23.92;86.90
15694;BME280;7947;48.834;9.132;2023-08-21T06:06:06;98737.75;;;24.02;87.11
15694;BME280;7947;48.834;9.132;2023-08-21T06:09:09;98742.72;;;24.12;86.50
15694;BME280;7947;48.834;9.132;2023-08-21T06:12:12;98742.22;;;24.22;85.58
15694;BME280;7947;48.834;9.132;2023-08-21T06:15:16;98744.13;;;24.34;85.56
15694;BME280;7947;48.834;9.132;2023-08-21T06:18:19;98745.22;;;24.45;85.29
15694;BME280;7947;48.834;9.132;2023-08-21T06:21:22;98744.38;;;24.56;83.66
15694;BME280;7947;48.834;9.132;2023-08-21T06:24:24;98745.44;;;24.67;82.18
15694;BME280;7947;48.834;9.132;2023-08-21T06:27:27;98743.78;;;24.78;81.61
15694;BME280;7947;48.834;9.132;2023-08-21T06:30:32;98747.59;;;24.89;80.96
15694;BME280;7947;48.834;9.132;2023-08-21T06:33:36;98745.50;;;24.98;79.54
15694;BME280;7947;48.834;9.132;2023-08-21T06:36:39;98745.06;;;25.12;79.04
15694;BME280;7947;48.834;9.132;2023-08-21T06:39:42;98749.28;;;25.25;79.16
15694;BME280;7947;48.834;9.132;2023-08-21T06:42:45;98748.13;;;25.42;77.58
15694;BME280;7947;48.834;9.132;2023-08-21T06:45:49;98743.63;;;25.84;75.83
15694;BME280;7947;48.834;9.132;2023-08-21T06:48:51;98745.66;;;26.44;71.58
15694;BME280;7947;48.834;9.132;2023-08-21T06:51:54;98748.69;;;27.23;69.85
15694;BME280;7947;48.834;9.132;2023-08-21T06:54:57;98744.19;;;27.60;67.00
15694;BME280;7947;48.834;9.132;2023-08-21T06:58:00;98750.84;;;27.85;66.21
15694;BME280;7947;48.834;9.132;2023-08-21T07:01:04;98758.31;;;27.85;65.50
15694;BME280;7947;48.834;9.132;2023-08-21T07:04:07;98760.59;;;27.79;65.78
15694;BME280;7947;48.834;9.132;2023-08-21T07:07:10;98758.47;;;27.69;65.58
15694;BME280;7947;48.834;9.132;2023-08-21T07:10:13;98755.50;;;27.55;65.96
15694;BME280;7947;48.834;9.132;2023-08-21T07:13:15;98755.00;;;27.46;65.26
15694;BME280;7947;48.834;9.132;2023-08-21T07:16:20;98762.94;;;27.51;66.32
15694;BME280;7947;48.834;9.132;2023-08-21T07:19:22;98756.25;;;27.52;65.89
15694;BME280;7947;48.834;9.132;2023-08-21T07:22:25;98761.81;;;27.55;66.15
15694;BME280;7947;48.834;9.132;2023-08-21T07:25:28;98760.44;;;27.68;65.63
15694;BME280;7947;48.834;9.132;2023-08-21T07:28:31;98759.13;;;27.85;65.56
15694;BME280;7947;48.834;9.132;2023-08-21T07:31:35;98761.91;;;27.89;64.59
15694;BME280;7947;48.834;9.132;2023-08-21T07:34:38;98753.16;;;28.09;66.53
15694;BME280;7947;48.834;9.132;2023-08-21T07:37:43;98764.41;;;28.27;64.66
15694;BME280;7947;48.834;9.132;2023-08-21T07:40:46;98766.59;;;28.44;64.37
15694;BME280;7947;48.834;9.132;2023-08-21T07:43:49;98765.59;;;28.59;62.96
15694;BME280;7947;48.834;9.132;2023-08-21T07:46:53;98763.50;;;28.82;62.49
15694;BME280;7947;48.834;9.132;2023-08-21T07:49:56;98767.63;;;29.02;62.22
15694;BME280;7947;48.834;9.132;2023-08-21T07:52:59;98771.00;;;29.22;62.00
15694;BME280;7947;48.834;9.132;2023-08-21T07:56:03;98767.56;;;29.39;62.39
15694;BME280;7947;48.834;9.132;2023-08-21T07:59:06;98770.47;;;29.57;62.07
15694;BME280;7947;48.834;9.132;2023-08-21T08:02:10;98766.59;;;29.65;60.67
15694;BME280;7947;48.834;9.132;2023-08-21T08:05:14;98769.06;;;29.73;58.93
15694;BME280;7947;48.834;9.132;2023-08-21T08:08:17;98767.94;;;29.85;58.79
15694;BME280;7947;48.834;9.132;2023-08-21T08:11:20;98770.31;;;29.90;58.50
15694;BME280;7947;48.834;9.132;2023-08-21T08:14:23;98764.81;;;29.93;59.94
15694;BME280;7947;48.834;9.132;2023-08-21T08:17:27;98766.06;;;30.06;60.06
15694;BME280;7947;48.834;9.132;2023-08-21T08:20:30;98771.66;;;30.17;60.20
15694;BME280;7947;48.834;9.132;2023-08-21T08:23:33;98773.31;;;30.32;59.39
15694;BME280;7947;48.834;9.132;2023-08-21T08:26:35;98768.19;;;30.38;58.65
15694;BME280;7947;48.834;9.132;2023-08-21T08:29:38;98767.84;;;30.43;58.25
15694;BME280;7947;48.834;9.132;2023-08-21T08:32:43;98771.41;;;30.47;57.98
15694;BME280;7947;48.834;9.132;2023-08-21T08:35:47;98771.03;;;30.52;58.81
15694;BME280;7947;48.834;9.132;2023-08-21T08:38:50;98759.56;;;30.53;58.46
15694;BME280;7947;48.834;9.132;2023-08-21T08:41:57;98761.56;;;30.63;58.24
15694;BME280;7947;48.834;9.132;2023-08-21T08:45:03;98758.41;;;30.65;56.76
15694;BME280;7947;48.834;9.132;2023-08-21T08:48:07;98760.41;;;30.75;56.42
15694;BME280;7947;48.834;9.132;2023-08-21T08:51:11;98759.22;;;30.76;57.49
15694;BME280;7947;48.834;9.132;2023-08-21T08:54:16;98764.00;;;30.86;57.67
15694;BME280;7947;48.834;9.132;2023-08-21T08:57:19;98761.25;;;30.96;57.93
15694;BME280;7947;48.834;9.132;2023-08-21T09:00:22;98761.25;;;31.00;57.51
15694;BME280;7947;48.834;9.132;2023-08-21T09:03:27;98755.31;;;31.01;54.79
15694;BME280;7947;48.834;9.132;2023-08-21T09:06:32;98758.50;;;31.03;55.41
15694;BME280;7947;48.834;9.132;2023-08-21T09:09:38;98752.19;;;31.06;55.05
15694;BME280;7947;48.834;9.132;2023-08-21T09:12:45;98756.50;;;31.07;55.97
15694;BME280;7947;48.834;9.132;2023-08-21T09:15:52;98752.97;;;31.14;55.43
15694;BME280;7947;48.834;9.132;2023-08-21T09:18:57;98753.34;;;31.27;56.55
15694;BME280;7947;48.834;9.132;2023-08-21T09:22:08;98752.16;;;31.31;55.04
15694;BME280;7947;48.834;9.132;2023-08-21T09:25:11;98747.84;;;31.51;56.06
15694;BME280;7947;48.834;9.132;2023-08-21T09:28:17;98747.03;;;31.58;54.48
15694;BME280;7947;48.834;9.132;2023-08-21T09:31:29;98749.75;;;31.75;54.38
15694;BME280;7947;48.834;9.132;2023-08-21T09:34:37;98752.13;;;31.94;52.28
15694;BME280;7947;48.834;9.132;2023-08-21T09:37:40;98745.75;;;31.90;53.38
15694;BME280;7947;48.834;9.132;2023-08-21T09:40:44;98747.75;;;31.97;51.68
15694;BME280;7947;48.834;9.132;2023-08-21T09:43:52;98747.72;;;32.08;50.90
15694;BME280;7947;48.834;9.132;2023-08-21T09:46:55;98746.50;;;32.16;51.76
15694;BME280;7947;48.834;9.132;2023-08-21T09:50:00;98747.66;;;32.29;49.64
15694;BME280;7947;48.834;9.132;2023-08-21T09:53:03;98748.41;;;32.36;49.97
15694;BME280;7947;48.834;9.132;2023-08-21T09:56:07;98744.06;;;32.32;50.48
15694;BME280;7947;48.834;9.132;2023-08-21T09:59:10;98745.59;;;32.40;50.31
15694;BME280;7947;48.834;9.132;2023-08-21T10:02:14;98746.00;;;32.35;47.35
15694;BME280;7947;48.834;9.132;2023-08-21T10:05:19;98731.78;;;32.26;48.14
15694;BME280;7947;48.834;9.132;2023-08-21T10:08:25;98735.72;;;32.32;47.99
15694;BME280;7947;48.834;9.132;2023-08-21T10:11:28;98733.31;;;32.48;49.11
15694;BME280;7947;48.834;9.132;2023-08-21T10:14:31;98724.88;;;32.58;48.09
15694;BME280;7947;48.834;9.132;2023-08-21T10:17:37;98730.81;;;32.67;47.34
15694;BME280;7947;48.834;9.132;2023-08-21T10:20:42;98716.88;;;32.71;47.58
15694;BME280;7947;48.834;9.132;2023-08-21T10:23:47;98714.03;;;32.81;47.52
15694;BME280;7947;48.834;9.132;2023-08-21T10:26:50;98709.56;;;32.91;48.64
15694;BME280;7947;48.834;9.132;2023-08-21T10:29:56;98703.97;;;33.02;47.81
15694;BME280;7947;48.834;9.132;2023-08-21T10:33:00;98711.38;;;33.19;46.46
15694;BME280;7947;48.834;9.132;2023-08-21T10:36:04;98705.03;;;33.18;45.54
15694;BME280;7947;48.834;9.132;2023-08-21T10:39:14;98700.16;;;33.29;44.85
15694;BME280;7947;48.834;9.132;2023-08-21T10:42:18;98700.16;;;33.29;45.80
15694;BME280;7947;48.834;9.132;2023-08-21T10:45:21;98710.47;;;33.32;44.49
15694;BME280;7947;48.834;9.132;2023-08-21T10:48:24;98694.16;;;33.34;44.09
15694;BME280;7947;48.834;9.132;2023-08-21T10:51:29;98705.66;;;33.36;45.12
15694;BME280;7947;48.834;9.132;2023-08-21T10:54:42;98694.50;;;33.40;43.63
15694;BME280;7947;48.834;9.132;2023-08-21T10:57:46;98692.03;;;33.45;45.49
15694;BME280;7947;48.834;9.132;2023-08-21T11:00:56;98694.72;;;33.59;45.32
15694;BME280;7947;48.834;9.132;2023-08-21T11:03:59;98686.28;;;33.70;45.22
15694;BME280;7947;48.834;9.132;2023-08-21T11:07:05;98688.13;;;33.80;44.45
15694;BME280;7947;48.834;9.132;2023-08-21T11:10:10;98693.72;;;33.77;43.12
15694;BME280;7947;48.834;9.132;2023-08-21T11:13:13;98687.59;;;33.92;42.44
15694;BME280;7947;48.834;9.132;2023-08-21T11:16:16;98687.13;;;34.01;42.80
15694;BME280;7947;48.834;9.132;2023-08-21T11:19:19;98698.63;;;34.03;43.24
15694;BME280;7947;48.834;9.132;2023-08-21T11:22:32;98691.53;;;33.98;43.13
15694;BME280;7947;48.834;9.132;2023-08-21T11:25:38;98684.38;;;33.60;43.20
15694;BME280;7947;48.834;9.132;2023-08-21T11:28:41;98690.00;;;33.09;44.57
15694;BME280;7947;48.834;9.132;2023-08-21T11:31:45;98682.34;;;32.72;45.95
15694;BME280;7947;48.834;9.132;2023-08-21T11:34:50;98690.75;;;32.61;46.26
15694;BME280;7947;48.834;9.132;2023-08-21T11:37:54;98681.72;;;32.43;46.04
15694;BME280;7947;48.834;9.132;2023-08-21T11:40:58;98683.72;;;32.39;48.22
15694;BME280;7947;48.834;9.132;2023-08-21T11:44:02;98677.22;;;32.67;47.07
15694;BME280;7947;48.834;9.132;2023-08-21T11:47:05;98680.59;;;32.92;47.18
15694;BME280;7947;48.834;9.132;2023-08-21T11:50:09;98667.88;;;32.98;45.40
15694;BME280;7947;48.834;9.132;2023-08-21T11:53:15;98670.38;;;33.26;45.96
15694;BME280;7947;48.834;9.132;2023-08-21T11:56:18;98670.16;;;33.54;44.65
15694;BME280;7947;48.834;9.132;2023-08-21T11:59:24;98669.09;;;33.75;44.18
15694;BME280;7947;48.834;9.132;2023-08-21T12:02:28;98654.97;;;33.93;44.37
15694;BME280;7947;48.834;9.132;2023-08-21T12:05:31;98659.22;;;34.04;44.66
15694;BME280;7947;48.834;9.132;2023-08-21T12:08:36;98667.44;;;34.15;42.74
15694;BME280;7947;48.834;9.132;2023-08-21T12:11:39;98663.34;;;34.23;44.91
15694;BME280;7947;48.834;9.132;2023-08-21T12:14:43;98666.84;;;34.00;44.74
15694;BME280;7947;48.834;9.132;2023-08-21T12:17:46;98663.25;;;33.66;45.00
15694;BME280;7947;48.834;9.132;2023-08-21T12:20:49;98663.81;;;33.50;44.18
15694;BME280;7947;48.834;9.132;2023-08-21T12:23:54;98658.38;;;33.36;44.08
15694;BME280;7947;48.834;9.132;2023-08-21T12:26:57;98653.47;;;33.51;44.95
15694;BME280;7947;48.834;9.132;2023-08-21T12:29:59;98649.78;;;33.61;44.42
15694;BME280;7947;48.834;9.132;2023-08-21T12:33:03;98649.91;;;33.84;44.55
15694;BME280;7947;48.834;9.132;2023-08-21T12:36:22;98651.19;;;34.10;45.63
15694;BME280;7947;48.834;9.132;2023-08-21T12:39:27;98643.41;;;34.28;43.06
15694;BME280;7947;48.834;9.132;2023-08-21T12:42:29;98640.44;;;34.38;42.56
15694;BME280;7947;48.834;9.132;2023-08-21T12:45:36;98637.19;;;34.43;42.00
15694;BME280;7947;48.834;9.132;2023-08-21T12:48:39;98637.97;;;34.47;42.59
15694;BME280;7947;48.834;9.132;2023-08-21T12:51:41;98635.44;;;34.57;41.74
15694;BME280;7947;48.834;9.132;2023-08-21T12:54:45;98626.66;;;34.58;41.92
15694;BME280;7947;48.834;9.132;2023-08-21T12:57:49;98629.91;;;34.53;41.35
15694;BME280;7947;48.834;9.132;2023-08-21T13:00:52;98621.19;;;34.51;41.56
15694;BME280;7947;48.834;9.132;2023-08-21T13:03:55;98617.47;;;34.61;40.94
15694;BME280;7947;48.834;9.132;2023-08-21T13:06:58;98628.88;;;34.40;41.21
15694;BME280;7947;48.834;9.132;2023-08-21T13:10:03;98615.13;;;33.99;41.68
15694;BME280;7947;48.834;9.132;2023-08-21T13:13:06;98624.41;;;33.55;43.98
15694;BME280;7947;48.834;9.132;2023-08-21T13:16:09;98621.94;;;33.27;44.75
15694;BME280;7947;48.834;9.132;2023-08-21T13:19:12;98623.72;;;33.07;45.19
15694;BME280;7947;48.834;9.132;2023-08-21T13:22:16;98625.44;;;32.91;46.67
15694;BME280;7947;48.834;9.132;2023-08-21T13:25:22;98618.63;;;32.95;44.69
15694;BME280;7947;48.834;9.132;2023-08-21T13:28:25;98618.41;;;33.23;45.37
15694;BME280;7947;48.834;9.132;2023-08-21T13:31:28;98613.81;;;33.47;42.40
15694;BME280;7947;48.834;9.132;2023-08-21T13:34:31;98613.50;;;33.72;42.32
15694;BME280;7947;48.834;9.132;2023-08-21T13:37:34;98603.97;;;33.69;42.78
15694;BME280;7947;48.834;9.132;2023-08-21T13:40:39;98612.19;;;33.46;42.89
15694;BME280;7947;48.834;9.132;2023-08-21T13:43:42;98605.16;;;33.34;43.14
15694;BME280;7947;48.834;9.132;2023-08-21T13:46:47;98598.28;;;33.09;42.98
15694;BME280;7947;48.834;9.132;2023-08-21T13:49:49;98600.81;;;32.93;44.89
15694;BME280;7947;48.834;9.132;2023-08-21T13:52:52;98586.38;;;33.05;45.52
15694;BME280;7947;48.834;9.132;2023-08-21T13:55:56;98585.41;;;33.22;44.15
15694;BME280;7947;48.834;9.132;2023-08-21T13:58:59;98582.78;;;33.45;44.32
15694;BME280;7947;48.834;9.132;2023-08-21T14:02:02;98587.72;;;33.67;43.66
15694;BME280;7947;48.834;9.132;2023-08-21T14:05:06;98587.56;;;33.78;43.58
15694;BME280;7947;48.834;9.132;2023-08-21T14:08:09;98582.22;;;33.60;41.99
15694;BME280;7947;48.834;9.132;2023-08-21T14:11:13;98580.22;;;33.27;43.06
15694;BME280;7947;48.834;9.132;2023-08-21T14:14:17;98579.34;;;32.93;44.22
15694;BME280;7947;48.834;9.132;2023-08-21T14:17:20;98587.06;;;32.71;46.42
15694;BME280;7947;48.834;9.132;2023-08-21T14:20:23;98579.78;;;32.88;44.70
15694;BME280;7947;48.834;9.132;2023-08-21T14:23:25;98583.09;;;33.17;43.98
15694;BME280;7947;48.834;9.132;2023-08-21T14:26:30;98573.31;;;33.39;43.54
15694;BME280;7947;48.834;9.132;2023-08-21T14:29:32;98579.09;;;33.55;43.27
15694;BME280;7947;48.834;9.132;2023-08-21T14:32:35;98578.63;;;33.63;44.28
15694;BME280;7947;48.834;9.132;2023-08-21T14:35:39;98569.94;;;33.58;43.72
15694;BME280;7947;48.834;9.132;2023-08-21T14:38:42;98563.47;;;33.64;43.84
15694;BME280;7947;48.834;9.132;2023-08-21T14:41:46;98575.47;;;33.61;43.23
15694;BME280;7947;48.834;9.132;2023-08-21T14:44:49;98563.53;;;33.24;42.98
15694;BME280;7947;48.834;9.132;2023-08-21T14:47:51;98568.59;;;32.95;43.69
15694;BME280;7947;48.834;9.132;2023-08-21T14:50:54;98569.59;;;32.74;45.97
15694;BME280;7947;48.834;9.132;2023-08-21T14:53:57;98563.38;;;32.56;46.62
15694;BME280;7947;48.834;9.132;2023-08-21T14:57:02;98563.00;;;32.54;46.10
15694;BME280;7947;48.834;9.132;2023-08-21T15:00:06;98564.06;;;32.71;45.69
15694;BME280;7947;48.834;9.132;2023-08-21T15:03:10;98557.94;;;32.90;45.84
15694;BME280;7947;48.834;9.132;2023-08-21T15:06:13;98560.09;;;33.13;46.54
15694;BME280;7947;48.834;9.132;2023-08-21T15:09:17;98541.97;;;33.35;46.07
15694;BME280;7947;48.834;9.132;2023-08-21T15:12:21;98539.78;;;33.53;46.10
15694;BME280;7947;48.834;9.132;2023-08-21T15:15:24;98534.03;;;33.67;44.87
15694;BME280;7947;48.834;9.132;2023-08-21T15:18:27;98542.34;;;33.70;43.75
15694;BME280;7947;48.834;9.132;2023-08-21T15:21:29;98531.91;;;33.78;42.95
15694;BME280;7947;48.834;9.132;2023-08-21T15:24:32;98535.94;;;33.74;43.69
15694;BME280;7947;48.834;9.132;2023-08-21T15:27:36;98537.13;;;33.72;44.71
15694;BME280;7947;48.834;9.132;2023-08-21T15:30:40;98532.38;;;33.73;42.67
15694;BME280;7947;48.834;9.132;2023-08-21T15:33:42;98532.44;;;33.69;43.26
15694;BME280;7947;48.834;9.132;2023-08-21T15:36:45;98530.81;;;33.72;42.95
15694;BME280;7947;48.834;9.132;2023-08-21T15:39:48;98527.69;;;33.66;44.23
15694;BME280;7947;48.834;9.132;2023-08-21T15:42:52;98519.69;;;33.68;44.12
15694;BME280;7947;48.834;9.132;2023-08-21T15:45:55;98521.72;;;33.68;43.11
15694;BME280;7947;48.834;9.132;2023-08-21T15:48:58;98521.75;;;33.64;43.64
15694;BME280;7947;48.834;9.132;2023-08-21T15:52:01;98521.34;;;33.66;43.20
15694;BME280;7947;48.834;9.132;2023-08-21T15:55:04;98515.03;;;33.62;43.50
15694;BME280;7947;48.834;9.132;2023-08-21T15:58:09;98511.09;;;33.59;43.55
15694;BME280;7947;48.834;9.132;2023-08-21T16:01:11;98512.66;;;33.60;43.15
15694;BME280;7947;48.834;9.132;2023-08-21T16:04:14;98507.19;;;33.53;42.70
15694;BME280;7947;48.834;9.132;2023-08-21T16:07:17;98504.88;;;33.48;44.20
15694;BME280;7947;48.834;9.132;2023-08-21T16:10:20;98503.69;;;33.46;43.26
15694;BME280;7947;48.834;9.132;2023-08-21T16:13:24;98505.72;;;33.42;43.96
15694;BME280;7947;48.834;9.132;2023-08-21T16:16:26;98500.28;;;33.35;44.01
15694;BME280;7947;48.834;9.132;2023-08-21T16:19:29;98498.72;;;33.30;43.84
15694;BME280;7947;48.834;9.132;2023-08-21T16:22:33;98492.13;;;33.17;44.32
15694;BME280;7947;48.834;9.132;2023-08-21T16:25:36;98502.97;;;33.08;45.42